Time;durP1;ratioP1;P1;durP2;ratioP2;P2;SDS_P1;SDS_P2;PMS_P1;PMS_P2;Temp;Humidity;BMP_temperature;BMP_pressure;BME280_temperature;BME280_humidity;BME280_pressure;Samples;Min_cycle;Max_cycle;Signal;HPM_P1;HPM_P2
2020/03/15 00:00:00;;;;;;;6.65;3.65;;;;;;;0.53;69.93262;95715.72;;;;
2020/03/15 00:01:01;;;;;;;6.65;3.65;;;;;;;0.53;69.93262;95715.72;;;;
2020/03/15 00:06:03;;;;;;;6.65;3.65;;;;;;;0.53;69.93262;95715.72;;;;
2020/03/15 00:07:10;;;;;;;6.65;3.65;;;;;;;0.53;69.93262;95715.72;;;;
2020/03/15 00:16:33;;;;;;;7.3;3.55;;;;;;;0.32;69.90918;95717.11;;;;
2020/03/15 00:25:57;;;;;;;8.200001;5;;;;;;;0.13;69.93066;95723.11;;;;
2020/03/15 00:35:20;;;;;;;8.200001;5;;;;;;;0.13;69.93066;95723.11;;;;
2020/03/15 00:44:43;;;;;;;10.45;5.749999;;;;;;;0;69.87695;95721.01;;;;
2020/03/15 00:54:06;;;;;;;10.35;6.749999;;;;;;;-0.1;70.08105;95727.34;;;;
2020/03/15 01:03:29;;;;;;;9.499999;5.349999;;;;;;;-0.17;69.74316;95720.18;;;;
2020/03/15 01:12:53;;;;;;;9.95;6.05;;;;;;;-0.13;70.2959;95716.13;;;;
2020/03/15 01:22:16;;;;;;;9.200001;5.75;;;;;;;-0.13;70.3584;95712.14;;;;
2020/03/15 01:31:39;;;;;;;10.05;6.05;;;;;;;-0.17;70.66406;95707.75;;;;
2020/03/15 01:41:02;;;;;;;10.05;6.05;;;;;;;-0.17;70.66406;95707.75;;;;
2020/03/15 01:50:25;;;;;;;10.45;6.299999;;;;;;;-0.1;70.85254;95702.62;;;;
2020/03/15 01:59:49;;;;;;;10.9;6;;;;;;;-0.17;71.2373;95687.02;;;;
2020/03/15 02:09:12;;;;;;;9.5;4.950001;;;;;;;-0.28;70.90625;95680.18;;;;
2020/03/15 02:18:35;;;;;;;11.35;5.85;;;;;;;-0.26;71.47363;95684;;;;
2020/03/15 02:27:58;;;;;;;8.199999;5.95;;;;;;;-0.38;71.75684;95669.26;;;;
2020/03/15 02:37:21;;;;;;;12.3;5.15;;;;;;;-0.49;71.45605;95667.42;;;;
2020/03/15 02:46:45;;;;;;;6.500001;4.700001;;;;;;;-0.59;71.21094;95666.63;;;;
2020/03/15 02:56:08;;;;;;;6.500001;4.700001;;;;;;;-0.59;71.21094;95666.63;;;;
2020/03/15 03:05:31;;;;;;;8.75;4.75;;;;;;;-0.73;70.91504;95663.73;;;;
2020/03/15 03:14:54;;;;;;;7.1;4.55;;;;;;;-0.79;70.84473;95654.6;;;;
2020/03/15 03:24:52;;;;;;;7.9;5.25;;;;;;;-0.88;70.69141;95649.01;;;;
2020/03/15 03:34:19;;;;;;;9.100001;4.600001;;;;;;;-0.94;70.68164;95642.52;;;;
2020/03/15 03:43:45;;;;;;;9.3;5.75;;;;;;;-1;71.15039;95645.36;;;;
2020/03/15 03:53:08;;;;;;;9.950002;5.5;;;;;;;-1.05;70.96582;95651.14;;;;
2020/03/15 04:02:31;;;;;;;9.950002;5.5;;;;;;;-1.05;70.96582;95651.14;;;;
2020/03/15 04:11:54;;;;;;;8.65;5.25;;;;;;;-1.1;70.92773;95645.49;;;;
2020/03/15 04:21:18;;;;;;;9.15;5.2;;;;;;;-1.19;70.83887;95641.61;;;;
2020/03/15 04:30:41;;;;;;;8.650002;5.750001;;;;;;;-1.22;70.75;95634.38;;;;
2020/03/15 04:40:04;;;;;;;10.35;5.75;;;;;;;-1.31;70.81738;95633.59;;;;
2020/03/15 04:49:27;;;;;;;12.1;5.45;;;;;;;-1.3;70.6748;95619.78;;;;
2020/03/15 04:58:50;;;;;;;10.85;6.050001;;;;;;;-1.28;71.13574;95620.03;;;;
2020/03/15 05:08:14;;;;;;;10.85;6.050001;;;;;;;-1.28;71.13574;95620.03;;;;
2020/03/15 05:17:37;;;;;;;8.35;5.5;;;;;;;-1.27;71.09473;95611.08;;;;
2020/03/15 05:27:00;;;;;;;9.5;5.55;;;;;;;-1.25;71.02832;95609.05;;;;
2020/03/15 05:36:23;;;;;;;10.55;6.2;;;;;;;-1.28;70.99023;95605.88;;;;
2020/03/15 05:45:46;;;;;;;10.75;6.150001;;;;;;;-1.12;70.99609;95614.83;;;;
2020/03/15 05:55:09;;;;;;;12.05;6.4;;;;;;;-1.04;70.9043;95621.48;;;;
2020/03/15 06:04:33;;;;;;;10.9;6.2;;;;;;;-0.9;70.85645;95617.33;;;;
2020/03/15 06:13:56;;;;;;;10.45;7.399999;;;;;;;-0.82;70.78613;95615.16;;;;
2020/03/15 06:23:19;;;;;;;12.55;8.349999;;;;;;;-0.53;71.0332;95603.75;;;;
2020/03/15 06:32:42;;;;;;;12.55;8.349999;;;;;;;-0.53;71.0332;95603.75;;;;
2020/03/15 06:42:06;;;;;;;13.9;8.900001;;;;;;;-0.25;71.20508;95609.97;;;;
2020/03/15 06:51:29;;;;;;;16.05;9.5;;;;;;;0.18;71.23438;95600.51;;;;
2020/03/15 07:00:52;;;;;;;16.1;11.05;;;;;;;0.93;72.33203;95599.7;;;;
2020/03/15 07:10:15;;;;;;;14.2;9.75;;;;;;;1.57;72.38867;95602.14;;;;
2020/03/15 07:19:38;;;;;;;14.8;9.6;;;;;;;1.8;73.13086;95604.35;;;;
2020/03/15 07:29:02;;;;;;;15.05;8.8;;;;;;;6.03;67.32422;95592.31;;;;
2020/03/15 07:38:25;;;;;;;8.950001;6.600001;;;;;;;11.42;56.86621;95571.73;;;;
2020/03/15 07:47:48;;;;;;;9.899999;6.4;;;;;;;14.52;50.91406;95575.61;;;;
2020/03/15 07:57:11;;;;;;;7.75;5.649999;;;;;;;17.19;44.95117;95561.96;;;;
2020/03/15 08:06:34;;;;;;;5.95;5.299999;;;;;;;18.99;41.20313;95558.31;;;;
2020/03/15 08:15:58;;;;;;;6.35;4.799999;;;;;;;21.16;37.25098;95548.94;;;;
2020/03/15 08:25:21;;;;;;;6.299999;4.75;;;;;;;22.52;34.60742;95527.72;;;;
2020/03/15 08:34:44;;;;;;;6.899999;4.75;;;;;;;24.06;31.81055;95510.57;;;;
2020/03/15 08:44:07;;;;;;;5.599999;4.15;;;;;;;26;29.2207;95490.45;;;;
2020/03/15 08:53:30;;;;;;;6.000001;4.25;;;;;;;26.62;27.57324;95474.46;;;;
2020/03/15 09:02:54;;;;;;;6.649999;4;;;;;;;27.78;25.77148;95476.36;;;;
2020/03/15 09:12:17;;;;;;;5.299999;3.85;;;;;;;28.81;24.26855;95472.53;;;;
2020/03/15 09:21:40;;;;;;;5.299999;3.8;;;;;;;29.39;22.78125;95467.1;;;;
2020/03/15 09:31:03;;;;;;;4.05;3.5;;;;;;;29.94;22.00293;95445.33;;;;
2020/03/15 09:40:26;;;;;;;3.95;3.3;;;;;;;31.29;20.45117;95431.95;;;;
2020/03/15 09:49:50;;;;;;;5.65;4;;;;;;;32.15;19.39355;95425.1;;;;
2020/03/15 09:59:13;;;;;;;4.5;3.299999;;;;;;;32.91;18.2373;95410.92;;;;
2020/03/15 10:08:36;;;;;;;4.7;3.35;;;;;;;33.41;17.55859;95408.73;;;;
2020/03/15 10:17:59;;;;;;;3.35;3.05;;;;;;;33.7;16.9043;95410.36;;;;
2020/03/15 10:27:22;;;;;;;3.2;2.85;;;;;;;34.07;16.19531;95400.66;;;;
2020/03/15 10:36:46;;;;;;;4.2;3.1;;;;;;;34.33;15.76855;95390.14;;;;
2020/03/15 10:46:09;;;;;;;3.55;3.1;;;;;;;34.57;15.70801;95378.4;;;;
2020/03/15 10:55:32;;;;;;;3.8;3.3;;;;;;;34.73;15.29883;95357.5;;;;
2020/03/15 11:04:55;;;;;;;4;3.3;;;;;;;34.93;15.23633;95348.66;;;;
2020/03/15 11:08:03;;;;;;;4.05;3;;;;;;;34.72;14.97656;95343.24;;;;
2020/03/15 11:09:04;;;;;;;4.05;3;;;;;;;34.72;14.97656;95343.24;;;;
2020/03/15 11:10:06;;;;;;;4.05;3;;;;;;;34.72;14.97656;95343.24;;;;
2020/03/15 11:11:07;;;;;;;3.55;2.9;;;;;;;34.48;14.98047;95335.83;;;;
2020/03/15 11:12:08;;;;;;;3.55;2.9;;;;;;;34.48;14.98047;95335.83;;;;
2020/03/15 11:13:08;;;;;;;4.2;3.25;;;;;;;34.08;14.89844;95332.18;;;;
2020/03/15 11:14:09;;;;;;;4.2;3.25;;;;;;;34.08;14.89844;95332.18;;;;
2020/03/15 11:15:09;;;;;;;4.2;3.25;;;;;;;34.08;14.89844;95332.18;;;;
2020/03/15 11:16:10;;;;;;;3.5;2.9;;;;;;;33.69;15.08105;95325.71;;;;
2020/03/15 11:17:12;;;;;;;3.5;2.9;;;;;;;33.69;15.08105;95325.71;;;;
2020/03/15 11:18:13;;;;;;;3.5;2.9;;;;;;;33.69;15.08105;95325.71;;;;
2020/03/15 11:19:17;;;;;;;3.5;2.9;;;;;;;33.69;15.08105;95325.71;;;;
2020/03/15 11:20:18;;;;;;;3.5;2.9;;;;;;;33.69;15.08105;95325.71;;;;
2020/03/15 11:21:19;;;;;;;3.6;3.05;;;;;;;33.32;15.44629;95319.59;;;;
2020/03/15 11:22:19;;;;;;;3.6;3.05;;;;;;;33.32;15.44629;95319.59;;;;
2020/03/15 11:23:20;;;;;;;3.6;3.05;;;;;;;33.32;15.44629;95319.59;;;;
2020/03/15 11:24:20;;;;;;;4.15;2.95;;;;;;;33.21;15.61523;95320.06;;;;
2020/03/15 11:25:21;;;;;;;4.15;2.95;;;;;;;33.21;15.61523;95320.06;;;;
2020/03/15 11:26:22;;;;;;;4.15;2.95;;;;;;;33.21;15.61523;95320.06;;;;
2020/03/15 11:27:22;;;;;;;4.199999;2.900001;;;;;;;33.06;15.65527;95307.05;;;;
2020/03/15 11:28:22;;;;;;;4.199999;2.900001;;;;;;;33.06;15.65527;95307.05;;;;
2020/03/15 11:29:23;;;;;;;3.2;2.85;;;;;;;33;15.80273;95305.75;;;;
2020/03/15 11:30:23;;;;;;;3.2;2.85;;;;;;;33;15.80273;95305.75;;;;
2020/03/15 11:31:24;;;;;;;3.2;2.85;;;;;;;33;15.80273;95305.75;;;;
2020/03/15 11:32:24;;;;;;;3.6;2.95;;;;;;;32.77;15.70313;95308;;;;
2020/03/15 11:33:24;;;;;;;3.6;2.95;;;;;;;32.77;15.70313;95308;;;;
2020/03/15 11:34:25;;;;;;;3.6;2.95;;;;;;;32.77;15.70313;95308;;;;
2020/03/15 11:35:25;;;;;;;3.35;2.8;;;;;;;32.59;15.62793;95297.71;;;;
2020/03/15 11:36:26;;;;;;;3.35;2.8;;;;;;;32.59;15.62793;95297.71;;;;
2020/03/15 11:37:26;;;;;;;4.1;2.8;;;;;;;32.42;15.73633;95293.64;;;;
2020/03/15 11:38:27;;;;;;;4.1;2.8;;;;;;;32.42;15.73633;95293.64;;;;
2020/03/15 11:39:27;;;;;;;4.1;2.8;;;;;;;32.42;15.73633;95293.64;;;;
2020/03/15 11:40:27;;;;;;;3.15;2.85;;;;;;;32.3;15.7666;95290;;;;
2020/03/15 11:41:28;;;;;;;3.15;2.85;;;;;;;32.3;15.7666;95290;;;;
2020/03/15 11:42:28;;;;;;;3.8;3.1;;;;;;;32.31;16.06445;95283.62;;;;
2020/03/15 11:43:29;;;;;;;3.8;3.1;;;;;;;32.31;16.06445;95283.62;;;;
2020/03/15 11:44:29;;;;;;;3.8;3.1;;;;;;;32.31;16.06445;95283.62;;;;
2020/03/15 11:45:30;;;;;;;4.3;3.05;;;;;;;32.29;16.32617;95286.02;;;;
2020/03/15 11:46:30;;;;;;;4.3;3.05;;;;;;;32.29;16.32617;95286.02;;;;
2020/03/15 11:47:30;;;;;;;4.3;3.05;;;;;;;32.29;16.32617;95286.02;;;;
2020/03/15 11:48:31;;;;;;;3.3;3;;;;;;;32.08;16.19336;95284.23;;;;
2020/03/15 11:49:31;;;;;;;3.3;3;;;;;;;32.08;16.19336;95284.23;;;;
2020/03/15 11:50:32;;;;;;;3.4;2.900001;;;;;;;32.06;16.55859;95280.41;;;;
2020/03/15 11:51:32;;;;;;;3.4;2.900001;;;;;;;32.06;16.55859;95280.41;;;;
2020/03/15 11:52:33;;;;;;;3.4;2.900001;;;;;;;32.06;16.55859;95280.41;;;;
2020/03/15 11:53:33;;;;;;;4.15;2.8;;;;;;;32.02;16.7168;95272.17;;;;
2020/03/15 11:54:34;;;;;;;4.15;2.8;;;;;;;32.02;16.7168;95272.17;;;;
2020/03/15 11:55:34;;;;;;;4.15;2.8;;;;;;;32.02;16.7168;95272.17;;;;
2020/03/15 11:56:35;;;;;;;3.3;3;;;;;;;31.89;16.99707;95263.34;;;;
2020/03/15 11:57:35;;;;;;;3.3;3;;;;;;;31.89;16.99707;95263.34;;;;
2020/03/15 11:58:36;;;;;;;3.35;3.05;;;;;;;31.67;16.9668;95273.69;;;;
2020/03/15 11:59:36;;;;;;;3.35;3.05;;;;;;;31.67;16.9668;95273.69;;;;
2020/03/15 12:00:36;;;;;;;3.35;3.05;;;;;;;31.67;16.9668;95273.69;;;;
2020/03/15 12:01:43;;;;;;;3.3;3;;;;;;;31.48;17.1416;95265.31;;;;
2020/03/15 12:02:44;;;;;;;3.3;3;;;;;;;31.48;17.1416;95265.31;;;;
2020/03/15 12:03:44;;;;;;;3.4;3;;;;;;;31.41;17.26465;95262.59;;;;
2020/03/15 12:04:45;;;;;;;3.4;3;;;;;;;31.41;17.26465;95262.59;;;;
2020/03/15 12:05:45;;;;;;;3.4;3;;;;;;;31.41;17.26465;95262.59;;;;
2020/03/15 12:06:45;;;;;;;3.65;3.1;;;;;;;31.43;17.31055;95258.64;;;;
2020/03/15 12:07:46;;;;;;;3.65;3.1;;;;;;;31.43;17.31055;95258.64;;;;
2020/03/15 12:08:46;;;;;;;3.65;3.1;;;;;;;31.43;17.31055;95258.64;;;;
2020/03/15 12:09:47;;;;;;;4.45;3.3;;;;;;;31.43;17.18555;95256.43;;;;
2020/03/15 12:10:47;;;;;;;4.45;3.3;;;;;;;31.43;17.18555;95256.43;;;;
2020/03/15 12:11:48;;;;;;;3;2.75;;;;;;;31.39;17.30957;95243.02;;;;
2020/03/15 12:12:48;;;;;;;3;2.75;;;;;;;31.39;17.30957;95243.02;;;;
2020/03/15 12:13:49;;;;;;;3;2.75;;;;;;;31.39;17.30957;95243.02;;;;
2020/03/15 12:14:49;;;;;;;3.8;3.2;;;;;;;31.24;17.17871;95242.3;;;;
2020/03/15 12:15:49;;;;;;;3.8;3.2;;;;;;;31.24;17.17871;95242.3;;;;
2020/03/15 12:16:50;;;;;;;3.8;3.2;;;;;;;31.24;17.17871;95242.3;;;;
2020/03/15 12:17:50;;;;;;;3.95;3.2;;;;;;;31.14;17.33398;95239.67;;;;
2020/03/15 12:18:51;;;;;;;3.95;3.2;;;;;;;31.14;17.33398;95239.67;;;;
2020/03/15 12:19:51;;;;;;;3.3;3;;;;;;;31.05;17.36523;95240.89;;;;
2020/03/15 12:20:52;;;;;;;3.3;3;;;;;;;31.05;17.36523;95240.89;;;;
2020/03/15 12:21:52;;;;;;;3.3;3;;;;;;;31.05;17.36523;95240.89;;;;
2020/03/15 12:22:53;;;;;;;3.95;3.2;;;;;;;31.12;17.35645;95240.66;;;;
2020/03/15 12:23:53;;;;;;;3.95;3.2;;;;;;;31.12;17.35645;95240.66;;;;
2020/03/15 12:24:54;;;;;;;3.95;3.2;;;;;;;31.12;17.35645;95240.66;;;;
2020/03/15 12:25:54;;;;;;;3.8;3.4;;;;;;;31.03;17.2959;95234.86;;;;
2020/03/15 12:26:55;;;;;;;3.8;3.4;;;;;;;31.03;17.2959;95234.86;;;;
2020/03/15 12:27:55;;;;;;;4.349999;3.3;;;;;;;31.06;17.30859;95230.13;;;;
2020/03/15 12:28:56;;;;;;;4.349999;3.3;;;;;;;31.06;17.30859;95230.13;;;;
2020/03/15 12:29:56;;;;;;;4.349999;3.3;;;;;;;31.06;17.30859;95230.13;;;;
2020/03/15 12:30:57;;;;;;;3.45;2.9;;;;;;;31.24;17.56641;95232.12;;;;
2020/03/15 12:31:57;;;;;;;3.45;2.9;;;;;;;31.24;17.56641;95232.12;;;;
2020/03/15 12:32:58;;;;;;;4.25;3.2;;;;;;;31.44;17.87012;95226.95;;;;
2020/03/15 12:33:58;;;;;;;4.25;3.2;;;;;;;31.44;17.87012;95226.95;;;;
2020/03/15 12:34:59;;;;;;;4.25;3.2;;;;;;;31.44;17.87012;95226.95;;;;
2020/03/15 12:35:59;;;;;;;3.5;3.1;;;;;;;31.52;17.56543;95225.92;;;;
2020/03/15 12:36:59;;;;;;;3.5;3.1;;;;;;;31.52;17.56543;95225.92;;;;
2020/03/15 12:38:00;;;;;;;3.5;3.1;;;;;;;31.52;17.56543;95225.92;;;;
2020/03/15 12:39:00;;;;;;;3.5;3;;;;;;;31.7;17.42383;95221.47;;;;
2020/03/15 12:40:01;;;;;;;3.5;3;;;;;;;31.7;17.42383;95221.47;;;;
2020/03/15 12:41:01;;;;;;;3.25;2.95;;;;;;;31.91;17.2041;95218.09;;;;
2020/03/15 12:42:02;;;;;;;3.25;2.95;;;;;;;31.91;17.2041;95218.09;;;;
2020/03/15 12:43:02;;;;;;;3.25;2.95;;;;;;;31.91;17.2041;95218.09;;;;
2020/03/15 12:44:03;;;;;;;4.5;3.1;;;;;;;32.12;16.86914;95210.06;;;;
2020/03/15 12:45:04;;;;;;;4.5;3.1;;;;;;;32.12;16.86914;95210.06;;;;
2020/03/15 12:46:05;;;;;;;4.5;3.1;;;;;;;32.12;16.86914;95210.06;;;;
2020/03/15 12:47:05;;;;;;;3.4;3.1;;;;;;;32.35;17.08301;95218.02;;;;
2020/03/15 12:48:06;;;;;;;3.4;3.1;;;;;;;32.35;17.08301;95218.02;;;;
2020/03/15 12:49:06;;;;;;;3.4;3.1;;;;;;;32.48;17.01953;95203.47;;;;
2020/03/15 12:50:06;;;;;;;3.4;3.1;;;;;;;32.48;17.01953;95203.47;;;;
2020/03/15 12:51:07;;;;;;;3.4;3.1;;;;;;;32.48;17.01953;95203.47;;;;
2020/03/15 12:52:07;;;;;;;3.400001;3.1;;;;;;;32.55;16.87305;95201.76;;;;
2020/03/15 12:53:08;;;;;;;3.400001;3.1;;;;;;;32.55;16.87305;95201.76;;;;
2020/03/15 12:54:08;;;;;;;3.400001;3.1;;;;;;;32.55;16.87305;95201.76;;;;
2020/03/15 12:55:09;;;;;;;3.45;3;;;;;;;32.57;17.0459;95200.22;;;;
2020/03/15 12:56:09;;;;;;;3.45;3;;;;;;;32.57;17.0459;95200.22;;;;
2020/03/15 12:57:10;;;;;;;3.35;3.05;;;;;;;32.59;16.7373;95192.85;;;;
2020/03/15 12:58:10;;;;;;;3.35;3.05;;;;;;;32.59;16.7373;95192.85;;;;
2020/03/15 12:59:11;;;;;;;3.35;3.05;;;;;;;32.59;16.7373;95192.85;;;;
2020/03/15 13:00:11;;;;;;;3.85;3.2;;;;;;;32.65;16.75098;95199.33;;;;
2020/03/15 13:01:15;;;;;;;3.85;3.2;;;;;;;32.65;16.75098;95199.33;;;;
2020/03/15 13:02:16;;;;;;;3.85;3;;;;;;;32.69;16.96973;95190.77;;;;
2020/03/15 13:03:16;;;;;;;3.85;3;;;;;;;32.69;16.96973;95190.77;;;;
2020/03/15 13:04:17;;;;;;;3.85;3;;;;;;;32.69;16.96973;95190.77;;;;
2020/03/15 13:05:17;;;;;;;4.199999;3.35;;;;;;;32.84;16.84961;95200.58;;;;
2020/03/15 13:06:18;;;;;;;4.199999;3.35;;;;;;;32.84;16.84961;95200.58;;;;
2020/03/15 13:07:18;;;;;;;4.199999;3.35;;;;;;;32.84;16.84961;95200.58;;;;
2020/03/15 13:08:19;;;;;;;3.9;3.2;;;;;;;33.02;16.77637;95189.04;;;;
2020/03/15 13:09:19;;;;;;;3.9;3.2;;;;;;;33.02;16.77637;95189.04;;;;
2020/03/15 13:10:21;;;;;;;4;3.05;;;;;;;33.24;16.71582;95182.12;;;;
2020/03/15 13:11:21;;;;;;;4;3.05;;;;;;;33.24;16.71582;95182.12;;;;
2020/03/15 13:12:22;;;;;;;4;3.05;;;;;;;33.24;16.71582;95182.12;;;;
2020/03/15 13:13:22;;;;;;;3.899999;3.1;;;;;;;33.44;16.62012;95182.15;;;;
2020/03/15 13:14:22;;;;;;;3.899999;3.1;;;;;;;33.44;16.62012;95182.15;;;;
2020/03/15 13:15:23;;;;;;;3.899999;3.1;;;;;;;33.44;16.62012;95182.15;;;;
2020/03/15 13:16:23;;;;;;;4.65;3;;;;;;;33.56;16.53223;95182.31;;;;
2020/03/15 13:17:24;;;;;;;4.65;3;;;;;;;33.56;16.53223;95182.31;;;;
2020/03/15 13:18:25;;;;;;;4.25;2.75;;;;;;;33.72;16.16016;95181.06;;;;
2020/03/15 13:19:25;;;;;;;4.25;2.75;;;;;;;33.72;16.16016;95181.06;;;;
2020/03/15 13:20:26;;;;;;;4.25;2.75;;;;;;;33.72;16.16016;95181.06;;;;
2020/03/15 13:21:26;;;;;;;3.2;2.85;;;;;;;33.88;16.12012;95185;;;;
2020/03/15 13:22:27;;;;;;;3.2;2.85;;;;;;;33.88;16.12012;95185;;;;
2020/03/15 13:23:27;;;;;;;3.5;2.9;;;;;;;34.14;15.99121;95174.48;;;;
2020/03/15 13:24:28;;;;;;;3.5;2.9;;;;;;;34.14;15.99121;95174.48;;;;
2020/03/15 13:25:28;;;;;;;3.5;2.9;;;;;;;34.14;15.99121;95174.48;;;;
2020/03/15 13:26:29;;;;;;;3.1;2.75;;;;;;;34.44;15.72656;95162.5;;;;
2020/03/15 13:27:29;;;;;;;3.1;2.75;;;;;;;34.44;15.72656;95162.5;;;;
2020/03/15 13:28:29;;;;;;;3.1;2.75;;;;;;;34.44;15.72656;95162.5;;;;
2020/03/15 13:29:30;;;;;;;3;2.7;;;;;;;34.82;15.95703;95173.33;;;;
2020/03/15 13:30:30;;;;;;;3;2.7;;;;;;;34.82;15.95703;95173.33;;;;
2020/03/15 13:31:31;;;;;;;3;2.7;;;;;;;35.06;15.41406;95173.1;;;;
2020/03/15 13:32:32;;;;;;;3;2.7;;;;;;;35.06;15.41406;95173.1;;;;
2020/03/15 13:33:33;;;;;;;3;2.7;;;;;;;35.06;15.41406;95173.1;;;;
2020/03/15 13:34:33;;;;;;;3.7;2.900001;;;;;;;35.33;15.21582;95173.6;;;;
2020/03/15 13:35:34;;;;;;;3.7;2.900001;;;;;;;35.33;15.21582;95173.6;;;;
2020/03/15 13:36:34;;;;;;;3.7;2.900001;;;;;;;35.33;15.21582;95173.6;;;;
2020/03/15 13:37:35;;;;;;;3.7;2.9;;;;;;;35.49;14.95605;95171.67;;;;
2020/03/15 13:38:35;;;;;;;3.7;2.9;;;;;;;35.49;14.95605;95171.67;;;;
2020/03/15 13:39:36;;;;;;;2.9;2.6;;;;;;;35.6;14.92578;95172.88;;;;
2020/03/15 13:40:36;;;;;;;2.9;2.6;;;;;;;35.6;14.92578;95172.88;;;;
2020/03/15 13:41:37;;;;;;;2.9;2.6;;;;;;;35.6;14.92578;95172.88;;;;
2020/03/15 13:42:37;;;;;;;3;2.7;;;;;;;35.75;14.62988;95163.47;;;;
2020/03/15 13:43:38;;;;;;;3;2.7;;;;;;;35.75;14.62988;95163.47;;;;
2020/03/15 13:44:38;;;;;;;3;2.7;;;;;;;35.75;14.62988;95163.47;;;;
2020/03/15 13:45:39;;;;;;;2.95;2.4;;;;;;;35.78;14.34277;95161.28;;;;
2020/03/15 13:46:39;;;;;;;2.95;2.4;;;;;;;35.78;14.34277;95161.28;;;;
2020/03/15 13:47:40;;;;;;;3.05;2.6;;;;;;;35.88;14.17383;95157.26;;;;
2020/03/15 13:48:40;;;;;;;3.05;2.6;;;;;;;35.88;14.17383;95157.26;;;;
2020/03/15 13:49:41;;;;;;;3.05;2.6;;;;;;;35.88;14.17383;95157.26;;;;
2020/03/15 13:50:41;;;;;;;2.8;2.5;;;;;;;36.04;14.33984;95154.29;;;;
2020/03/15 13:51:42;;;;;;;2.8;2.5;;;;;;;36.04;14.33984;95154.29;;;;
2020/03/15 13:52:43;;;;;;;3.1;2.35;;;;;;;36.18;14.1709;95150.47;;;;
2020/03/15 13:53:59;;;;;;;3.1;2.35;;;;;;;36.18;14.1709;95150.47;;;;
2020/03/15 13:54:59;;;;;;;3.1;2.35;;;;;;;36.18;14.1709;95150.47;;;;
2020/03/15 13:56:00;;;;;;;3.15;2.6;;;;;;;36.28;14.05859;95153.49;;;;
2020/03/15 13:57:00;;;;;;;3.15;2.6;;;;;;;36.28;14.05859;95153.49;;;;
2020/03/15 13:58:01;;;;;;;2.900001;2.6;;;;;;;36.35;13.89941;95151.26;;;;
2020/03/15 13:59:34;;;;;;;2.900001;2.6;;;;;;;36.35;13.89941;95151.26;;;;
2020/03/15 14:00:35;;;;;;;2.900001;2.6;;;;;;;36.35;13.89941;95151.26;;;;
2020/03/15 14:01:35;;;;;;;2.95;2.4;;;;;;;36.24;13.71191;95147.47;;;;
2020/03/15 14:02:35;;;;;;;2.95;2.4;;;;;;;36.24;13.71191;95147.47;;;;
2020/03/15 14:03:36;;;;;;;3.05;2.6;;;;;;;36.15;13.7207;95147.66;;;;
2020/03/15 14:04:36;;;;;;;3.05;2.6;;;;;;;36.15;13.7207;95147.66;;;;
2020/03/15 14:05:37;;;;;;;3.05;2.6;;;;;;;36.15;13.7207;95147.66;;;;
2020/03/15 14:06:38;;;;;;;2.6;2.4;;;;;;;36.18;13.89453;95151.47;;;;
2020/03/15 14:07:38;;;;;;;2.6;2.4;;;;;;;36.18;13.89453;95151.47;;;;
2020/03/15 14:08:39;;;;;;;3;2.35;;;;;;;36.25;13.73438;95143.02;;;;
2020/03/15 14:09:39;;;;;;;3;2.35;;;;;;;36.25;13.73438;95143.02;;;;
2020/03/15 14:10:41;;;;;;;3;2.35;;;;;;;36.25;13.73438;95143.02;;;;
2020/03/15 14:11:41;;;;;;;2.5;2.299999;;;;;;;36.31;13.65625;95149.05;;;;
2020/03/15 14:12:43;;;;;;;2.5;2.299999;;;;;;;36.31;13.65625;95149.05;;;;
2020/03/15 14:13:44;;;;;;;2.5;2.299999;;;;;;;36.31;13.65625;95149.05;;;;
2020/03/15 14:14:44;;;;;;;2.5;2.3;;;;;;;36.3;13.54004;95140.83;;;;
2020/03/15 14:15:45;;;;;;;2.5;2.3;;;;;;;36.3;13.54004;95140.83;;;;
2020/03/15 14:16:46;;;;;;;2.9;2.45;;;;;;;36.27;13.48145;95142.02;;;;
2020/03/15 14:17:46;;;;;;;2.9;2.45;;;;;;;36.27;13.48145;95142.02;;;;
2020/03/15 14:18:46;;;;;;;2.9;2.45;;;;;;;36.27;13.48145;95142.02;;;;
2020/03/15 14:19:47;;;;;;;2.65;2.35;;;;;;;36.21;13.53711;95138.03;;;;
2020/03/15 14:20:49;;;;;;;2.65;2.35;;;;;;;36.21;13.53711;95138.03;;;;
2020/03/15 14:21:49;;;;;;;2.65;2.35;;;;;;;36.21;13.53711;95138.03;;;;
2020/03/15 14:22:49;;;;;;;3.3;2.5;;;;;;;36.16;13.82422;95141.85;;;;
2020/03/15 14:23:50;;;;;;;3.3;2.5;;;;;;;36.16;13.82422;95141.85;;;;
2020/03/15 14:24:50;;;;;;;2.6;2.4;;;;;;;36.12;13.83496;95139.04;;;;
2020/03/15 14:25:51;;;;;;;2.6;2.4;;;;;;;36.12;13.83496;95139.04;;;;
2020/03/15 14:26:51;;;;;;;2.6;2.4;;;;;;;36.12;13.83496;95139.04;;;;
2020/03/15 14:27:52;;;;;;;2.5;2.3;;;;;;;35.99;13.79688;95138.83;;;;
2020/03/15 14:28:53;;;;;;;2.5;2.3;;;;;;;35.99;13.79688;95138.83;;;;
2020/03/15 14:29:53;;;;;;;2.75;2.55;;;;;;;35.76;14.07715;95131.76;;;;
2020/03/15 14:30:54;;;;;;;2.75;2.55;;;;;;;35.76;14.07715;95131.76;;;;
2020/03/15 14:31:55;;;;;;;2.75;2.55;;;;;;;35.76;14.07715;95131.76;;;;
2020/03/15 14:32:55;;;;;;;2.5;2.3;;;;;;;35.54;14.05957;95121.11;;;;
2020/03/15 14:33:56;;;;;;;2.5;2.3;;;;;;;35.54;14.05957;95121.11;;;;
2020/03/15 14:34:56;;;;;;;2.5;2.3;;;;;;;35.54;14.05957;95121.11;;;;
2020/03/15 14:35:57;;;;;;;2.85;2.3;;;;;;;35.27;14.0166;95128.83;;;;
2020/03/15 14:36:57;;;;;;;2.85;2.3;;;;;;;35.27;14.0166;95128.83;;;;
2020/03/15 14:37:57;;;;;;;3.5;2.5;;;;;;;34.96;14.04199;95126.53;;;;
2020/03/15 14:38:58;;;;;;;3.5;2.5;;;;;;;34.96;14.04199;95126.53;;;;
2020/03/15 14:39:58;;;;;;;3.5;2.5;;;;;;;34.96;14.04199;95126.53;;;;
2020/03/15 14:40:59;;;;;;;2.65;2.4;;;;;;;34.71;14.1377;95132.19;;;;
2020/03/15 14:41:59;;;;;;;2.65;2.4;;;;;;;34.71;14.1377;95132.19;;;;
2020/03/15 14:43:01;;;;;;;2.65;2.4;;;;;;;34.71;14.1377;95132.19;;;;
2020/03/15 14:44:01;;;;;;;2.9;2.6;;;;;;;34.37;14.29883;95136.38;;;;
2020/03/15 14:45:02;;;;;;;2.9;2.6;;;;;;;34.37;14.29883;95136.38;;;;
2020/03/15 14:46:10;;;;;;;2.75;2.45;;;;;;;33.96;14.48145;95130.49;;;;
2020/03/15 14:47:11;;;;;;;2.75;2.45;;;;;;;33.96;14.48145;95130.49;;;;
2020/03/15 14:48:12;;;;;;;2.75;2.45;;;;;;;33.96;14.48145;95130.49;;;;
2020/03/15 14:49:12;;;;;;;2.45;2.25;;;;;;;33.67;14.74805;95127.79;;;;
2020/03/15 14:50:31;;;;;;;2.45;2.25;;;;;;;33.67;14.74805;95127.79;;;;
2020/03/15 14:51:33;;;;;;;3.4;2.35;;;;;;;33.18;14.88086;95124.27;;;;
2020/03/15 14:52:33;;;;;;;3.4;2.35;;;;;;;33.18;14.88086;95124.27;;;;
2020/03/15 14:53:36;;;;;;;3.4;2.35;;;;;;;33.18;14.88086;95124.27;;;;
2020/03/15 14:54:36;;;;;;;2.8;2.3;;;;;;;32.14;15.25879;95118.28;;;;
2020/03/15 14:55:38;;;;;;;2.8;2.3;;;;;;;32.14;15.25879;95118.28;;;;
2020/03/15 14:56:38;;;;;;;3;2.3;;;;;;;30.74;16.17969;95114.7;;;;
2020/03/15 14:57:39;;;;;;;3;2.3;;;;;;;30.74;16.17969;95114.7;;;;
2020/03/15 14:58:39;;;;;;;3;2.3;;;;;;;30.74;16.17969;95114.7;;;;
2020/03/15 14:59:40;;;;;;;2.5;2.2;;;;;;;29.33;16.9248;95112.2;;;;
2020/03/15 15:00:40;;;;;;;2.5;2.2;;;;;;;29.33;16.9248;95112.2;;;;
2020/03/15 15:02:10;;;;;;;3.75;2.3;;;;;;;27.94;17.9248;95107.76;;;;
2020/03/15 15:03:37;;;;;;;3.75;2.3;;;;;;;27.94;17.9248;95107.76;;;;
2020/03/15 15:04:37;;;;;;;3.2;2.2;;;;;;;26.7;18.6543;95100.56;;;;
2020/03/15 15:05:38;;;;;;;3.2;2.2;;;;;;;26.7;18.6543;95100.56;;;;
2020/03/15 15:06:39;;;;;;;3.2;2.2;;;;;;;26.7;18.6543;95100.56;;;;
2020/03/15 15:07:39;;;;;;;3.7;2.35;;;;;;;25.63;19.35254;95097.42;;;;
2020/03/15 15:08:40;;;;;;;3.7;2.35;;;;;;;25.63;19.35254;95097.42;;;;
2020/03/15 15:09:40;;;;;;;3.7;2.35;;;;;;;25.63;19.35254;95097.42;;;;
2020/03/15 15:11:36;;;;;;;2.35;2.15;;;;;;;24.65;20.01855;95104.93;;;;
2020/03/15 15:12:38;;;;;;;2.35;2.15;;;;;;;24.65;20.01855;95104.93;;;;
2020/03/15 15:13:39;;;;;;;2.35;2.15;;;;;;;24.65;20.01855;95104.93;;;;
2020/03/15 15:14:39;;;;;;;2.35;2.15;;;;;;;24.65;20.01855;95104.93;;;;
2020/03/15 15:15:40;;;;;;;3.35;2.45;;;;;;;22.98;21.76563;95090.14;;;;
2020/03/15 15:16:40;;;;;;;3.35;2.45;;;;;;;22.98;21.76563;95090.14;;;;
2020/03/15 15:17:40;;;;;;;3.35;2.45;;;;;;;22.98;21.76563;95090.14;;;;
2020/03/15 15:18:41;;;;;;;3.2;2.299999;;;;;;;22.31;22.24707;95089.01;;;;
2020/03/15 15:19:41;;;;;;;3.2;2.299999;;;;;;;22.31;22.24707;95089.01;;;;
2020/03/15 15:20:42;;;;;;;2.4;2.2;;;;;;;21.66;22.84961;95090.01;;;;
2020/03/15 15:21:43;;;;;;;2.4;2.2;;;;;;;21.66;22.84961;95090.01;;;;
2020/03/15 15:22:43;;;;;;;2.4;2.2;;;;;;;21.66;22.84961;95090.01;;;;
2020/03/15 15:23:44;;;;;;;3.1;2.5;;;;;;;21.07;23.21973;95082.95;;;;
2020/03/15 15:24:44;;;;;;;3.1;2.5;;;;;;;21.07;23.21973;95082.95;;;;
2020/03/15 15:25:45;;;;;;;3.1;2.5;;;;;;;21.07;23.21973;95082.95;;;;
2020/03/15 15:26:46;;;;;;;3.2;2.15;;;;;;;20.54;23.88086;95091.23;;;;
2020/03/15 15:27:46;;;;;;;3.2;2.15;;;;;;;20.54;23.88086;95091.23;;;;
2020/03/15 15:28:47;;;;;;;5.9;3.05;;;;;;;20.04;24.54199;95087.59;;;;
2020/03/15 15:29:47;;;;;;;5.9;3.05;;;;;;;20.04;24.54199;95087.59;;;;
2020/03/15 15:30:48;;;;;;;5.9;3.05;;;;;;;20.04;24.54199;95087.59;;;;
2020/03/15 15:31:48;;;;;;;3.35;2.8;;;;;;;19.6;25.14941;95084.45;;;;
2020/03/15 15:32:49;;;;;;;3.35;2.8;;;;;;;19.6;25.14941;95084.45;;;;
2020/03/15 15:33:50;;;;;;;3.35;2.8;;;;;;;19.6;25.14941;95084.45;;;;
2020/03/15 15:34:54;;;;;;;3.15;2.7;;;;;;;19.15;25.94336;95077.12;;;;
2020/03/15 15:35:59;;;;;;;3.15;2.7;;;;;;;19.15;25.94336;95077.12;;;;
2020/03/15 15:37:00;;;;;;;3.6;2.8;;;;;;;18.74;26.64941;95082.84;;;;
2020/03/15 15:38:00;;;;;;;3.6;2.8;;;;;;;18.74;26.64941;95082.84;;;;
2020/03/15 15:39:01;;;;;;;3.6;2.8;;;;;;;18.74;26.64941;95082.84;;;;
2020/03/15 15:41:13;;;;;;;3.6;2.8;;;;;;;18.74;26.64941;95082.84;;;;
2020/03/15 15:42:13;;;;;;;3.25;2.7;;;;;;;18.04;27.58887;95079.86;;;;
2020/03/15 15:43:14;;;;;;;3.25;2.7;;;;;;;18.04;27.58887;95079.86;;;;
2020/03/15 15:44:14;;;;;;;3.25;2.7;;;;;;;18.04;27.58887;95079.86;;;;